KREO

Details ICAO KREO
Name Rome State
Region United States
Timezone America/Boise (UTC-6.0)
Plans Departing 3
Arriving 5
Stats Elevation 4,053 ft / 1,235 m (AMSL)
Location 42.577638° -117.885417°
Runways 1
Magnetic Variation 13.565° E
Sunrise 2018-05-26 12:21:28 UTC / 2018-05-26 06:21:28 Local
Sunset 2018-05-27 03:18:39 UTC / 2018-05-26 21:18:39 Local
Advertisement - Login to hide

Runways

ID Width Length Bearing (true) Bearing (mag) Surface Threshold Offset Overrun Length
03 150 ft / 46 m 5,947 ft / 1,813 m 45.67° 32.10° Gravel 0 ft / 0 m 0 ft / 0 m
21 150 ft / 46 m 5,947 ft / 1,813 m 225.68° 212.11° Gravel 0 ft / 0 m 0 ft / 0 m

Map

Weather


0- 5 10 15 20 25 30 35+ Temperature / ° C

Clouds and Precipitation
Forecast for 2018-05-26 06:00 UTC. Updated 3 hours ago

Ground ~20,000 ft ~40,000 ft Winds

METAR

KREO 260752Z AUTO 21008KT 12/08 A2991 RMK AO1 SLP098 T01170078

TAF

Not found

Frequencies

Unicom 122.90 MHz CTAF
Warning: Do not use this data for real-world aviation or navigation. No guarantee of current accuracy is given.